Time;durP1;ratioP1;P1;durP2;ratioP2;P2;SDS_P1;SDS_P2;PMS_P1;PMS_P2;Temp;Humidity;BMP_temperature;BMP_pressure;BME280_temperature;BME280_humidity;BME280_pressure;Samples;Min_cycle;Max_cycle;Signal;HPM_P1;HPM_P2
2022/04/25 00:00:29;;;;;;;;;9.67;8.00;;;;;21.70;42.63;99867.06;110386;1260;19317;-51
2022/04/25 00:03:04;;;;;;;;;9.50;9.00;;;;;21.71;42.56;99866.41;110343;1261;19679;-52
2022/04/25 00:05:32;;;;;;;;;10.67;9.67;;;;;21.71;42.32;99867.19;110455;1261;21828;-52
2022/04/25 00:07:59;;;;;;;;;10.00;9.00;;;;;21.71;42.48;99868.48;110477;1261;19244;-51
2022/04/25 00:10:26;;;;;;;;;11.33;10.00;;;;;21.70;42.54;99871.77;110479;1261;19691;-55
2022/04/25 00:12:53;;;;;;;;;8.00;7.00;;;;;21.70;42.44;99870.21;110434;1260;21754;-52
2022/04/25 00:15:21;;;;;;;;;12.00;12.00;;;;;21.69;42.62;99869.53;110463;1261;19289;-51
2022/04/25 00:17:49;;;;;;;;;9.33;9.00;;;;;21.69;42.46;99872.77;110443;1261;19672;-53
2022/04/25 00:20:16;;;;;;;;;10.00;10.00;;;;;21.68;42.45;99875.36;110468;1261;20359;-53
2022/04/25 00:22:45;;;;;;;;;9.00;9.00;;;;;21.69;42.49;99876.19;110467;1261;19212;-53
2022/04/25 00:25:12;;;;;;;;;10.33;9.00;;;;;21.69;42.42;99874.69;110504;1260;19410;-53
2022/04/25 00:27:39;;;;;;;;;7.00;7.00;;;;;21.67;42.31;99868.23;110410;1261;20478;-52
2022/04/25 00:30:07;;;;;;;;;8.67;8.67;;;;;21.67;42.57;99870.27;110395;1261;19404;-53
2022/04/25 00:32:34;;;;;;;;;9.00;9.00;;;;;21.66;42.29;99869.40;110301;1260;23125;-52
2022/04/25 00:35:03;;;;;;;;;10.00;9.33;;;;;21.67;42.37;99868.44;110393;1261;20294;-54
2022/04/25 00:37:30;;;;;;;;;10.33;10.00;;;;;21.67;42.36;99867.02;110535;1261;19178;-51
2022/04/25 00:39:58;;;;;;;;;9.67;9.67;;;;;21.67;42.42;99866.30;110439;1261;19664;-54
2022/04/25 00:42:25;;;;;;;;;9.00;9.00;;;;;21.67;42.46;99868.81;110460;1261;20371;-53
2022/04/25 00:44:52;;;;;;;;;10.67;10.00;;;;;21.67;42.51;99867.93;110453;1261;24765;-51
2022/04/25 00:47:19;;;;;;;;;9.00;8.67;;;;;21.67;42.38;99866.97;110454;1261;19550;-53
2022/04/25 00:49:47;;;;;;;;;9.00;9.00;;;;;21.67;42.30;99868.81;110444;1261;20477;-52
2022/04/25 00:52:14;;;;;;;;;10.33;10.00;;;;;21.67;42.41;99868.65;110483;1261;19641;-54
2022/04/25 00:54:41;;;;;;;;;10.00;10.00;;;;;21.67;42.32;99869.27;110456;1261;23417;-55
2022/04/25 00:57:09;;;;;;;;;9.00;9.00;;;;;21.68;42.26;99869.87;110455;1261;20376;-52
2022/04/25 00:59:36;;;;;;;;;9.00;9.00;;;;;21.68;42.22;99867.48;110466;1261;20627;-53
2022/04/25 01:02:03;;;;;;;;;10.50;10.00;;;;;21.69;42.36;99865.29;110457;1261;19555;-54
2022/04/25 01:04:30;;;;;;;;;8.33;8.33;;;;;21.68;42.19;99860.09;110481;1261;23173;-53
2022/04/25 01:06:58;;;;;;;;;9.00;9.00;;;;;21.68;42.38;99859.33;110394;1260;19274;-53
2022/04/25 01:09:25;;;;;;;;;12.00;12.00;;;;;21.69;42.18;99859.08;110358;1261;21783;-52
2022/04/25 01:11:53;;;;;;;;;10.00;10.00;;;;;21.69;42.20;99860.00;111349;1260;21112;-54
2022/04/25 01:14:20;;;;;;;;;9.00;9.00;;;;;21.69;42.42;99857.28;110459;1261;19644;-53
2022/04/25 01:16:47;;;;;;;;;13.00;9.00;;;;;21.69;42.26;99851.41;110427;1261;20240;-52
2022/04/25 01:19:15;;;;;;;;;9.00;8.33;;;;;21.70;42.14;99849.89;110482;1261;23388;-53
2022/04/25 01:21:42;;;;;;;;;10.00;9.00;;;;;21.69;42.26;99852.36;110444;1261;19344;-53
2022/04/25 01:29:39;;;;;;;;;8.00;8.00;;;;;21.67;42.29;99846.79;110461;1261;19326;-53
2022/04/25 01:32:06;;;;;;;;;9.00;9.00;;;;;21.67;42.18;99846.63;110341;1261;19906;-53
2022/04/25 01:34:36;;;;;;;;;9.67;9.00;;;;;21.66;42.31;99841.34;110494;1261;20287;-55
2022/04/25 01:37:05;;;;;;;;;9.00;8.67;;;;;21.66;42.35;99843.52;110491;1261;19097;-54
2022/04/25 01:39:33;;;;;;;;;9.00;9.00;;;;;21.66;42.25;99842.55;110469;1261;19494;-53
2022/04/25 01:42:01;;;;;;;;;9.33;9.33;;;;;21.65;42.22;99842.14;110420;1261;21798;-54
2022/04/25 01:44:28;;;;;;;;;10.00;10.00;;;;;21.65;42.08;99839.41;110468;1261;23931;-53
2022/04/25 01:46:55;;;;;;;;;9.00;8.00;;;;;21.64;42.29;99834.35;110439;1261;22970;-51
2022/04/25 01:49:22;;;;;;;;;8.67;8.67;;;;;21.64;42.11;99836.15;110477;1261;20320;-54
2022/04/25 01:51:50;;;;;;;;;9.67;9.67;;;;;21.63;42.45;99832.80;110427;1261;19272;-53
2022/04/25 01:54:17;;;;;;;;;9.67;9.67;;;;;21.64;42.25;99837.23;110455;1261;20927;-54
2022/04/25 01:56:44;;;;;;;;;10.00;9.00;;;;;21.63;42.23;99833.84;110425;1260;20320;-53
2022/04/25 01:59:11;;;;;;;;;8.00;8.00;;;;;21.64;42.35;99832.46;110438;1261;19256;-55
2022/04/25 02:01:38;;;;;;;;;9.00;8.00;;;;;21.63;42.29;99828.02;110482;1261;19597;-55
2022/04/25 02:04:06;;;;;;;;;11.33;9.00;;;;;21.64;42.17;99834.81;110474;1260;23019;-53
2022/04/25 02:06:33;;;;;;;;;10.67;9.67;;;;;21.64;42.20;99833.80;110425;1261;23588;-50
2022/04/25 02:09:00;;;;;;;;;8.00;8.00;;;;;21.64;42.16;99834.34;110455;1261;20200;-52
2022/04/25 02:11:27;;;;;;;;;9.00;9.00;;;;;21.65;42.15;99836.49;110490;1261;22579;-51
2022/04/25 02:13:55;;;;;;;;;10.00;9.00;;;;;21.65;42.30;99836.20;110392;1261;20508;-57
2022/04/25 02:16:22;;;;;;;;;9.00;9.00;;;;;21.64;42.11;99833.32;110392;1261;21639;-54
2022/04/25 02:18:49;;;;;;;;;9.00;9.00;;;;;21.65;42.10;99836.09;110444;1261;20263;-53
2022/04/25 02:21:16;;;;;;;;;10.00;10.00;;;;;21.65;42.23;99836.71;110472;1261;19212;-56
2022/04/25 02:23:44;;;;;;;;;7.00;7.00;;;;;21.65;42.11;99841.39;110459;1261;22737;-53
2022/04/25 02:26:11;;;;;;;;;10.00;10.00;;;;;21.66;42.12;99841.52;110397;1261;20264;-52
2022/04/25 02:28:38;;;;;;;;;9.00;9.00;;;;;21.65;42.12;99843.96;110482;1261;24065;-56
2022/04/25 02:31:05;;;;;;;;;9.00;8.00;;;;;21.65;42.22;99839.94;110431;1261;20290;-52
2022/04/25 02:33:33;;;;;;;;;7.00;7.00;;;;;21.65;42.06;99843.29;110460;1261;20536;-52
2022/04/25 02:36:00;;;;;;;;;8.50;8.50;;;;;21.65;42.24;99837.63;110440;1261;19397;-53
2022/04/25 02:38:27;;;;;;;;;9.00;8.00;;;;;21.65;42.04;99838.52;110485;1260;22419;-54
2022/04/25 02:41:05;;;;;;;;;8.00;8.00;;;;;21.65;42.19;99839.41;110468;1261;20283;-54
2022/04/25 02:43:34;;;;;;;;;8.00;8.00;;;;;21.65;42.11;99841.41;110477;1261;19219;-54
2022/04/25 02:46:01;;;;;;;;;8.00;8.00;;;;;21.64;42.12;99835.06;110448;1261;19576;-53
2022/04/25 02:48:29;;;;;;;;;8.33;8.00;;;;;21.63;41.99;99834.72;110420;1261;23782;-54
2022/04/25 02:50:56;;;;;;;;;9.67;9.00;;;;;21.63;41.97;99840.39;110464;1260;19133;-56
2022/04/25 02:53:24;;;;;;;;;6.00;6.00;;;;;21.63;42.13;99837.49;110463;1261;19659;-53
2022/04/25 02:55:52;;;;;;;;;9.00;8.00;;;;;21.62;42.08;99837.23;110422;1261;20383;-54
2022/04/25 02:58:19;;;;;;;;;9.00;8.50;;;;;21.62;42.28;99834.39;110490;1261;19352;-54
2022/04/25 03:00:46;;;;;;;;;10.00;9.50;;;;;21.62;42.06;99835.81;110402;1260;23045;-51
2022/04/25 03:03:14;;;;;;;;;9.00;8.00;;;;;21.62;42.28;99835.64;110472;1261;20418;-53
2022/04/25 03:05:41;;;;;;;;;10.00;9.00;;;;;21.62;42.04;99836.19;110492;1261;19321;-51
2022/04/25 03:08:09;;;;;;;;;9.00;7.00;;;;;21.62;42.22;99836.77;110472;1261;21468;-54
2022/04/25 03:10:36;;;;;;;;;9.00;9.00;;;;;21.62;42.04;99838.96;110518;1260;20383;-53
2022/04/25 03:13:04;;;;;;;;;9.00;9.00;;;;;21.61;42.10;99838.09;110438;1261;19206;-54
2022/04/25 03:15:31;;;;;;;;;10.00;10.00;;;;;21.63;42.19;99830.27;110445;1261;19444;-52
2022/04/25 03:17:59;;;;;;;;;12.00;9.00;;;;;21.62;42.24;99834.84;110480;1260;20362;-54
2022/04/25 03:20:26;;;;;;;;;7.33;7.33;;;;;21.62;42.03;99831.87;110465;1261;19297;-54
2022/04/25 03:22:53;;;;;;;;;10.00;9.00;;;;;21.63;42.30;99828.85;110463;1260;19591;-54
2022/04/25 03:25:20;;;;;;;;;8.00;8.00;;;;;21.62;42.06;99824.58;110424;1262;20335;-54
2022/04/25 03:27:48;;;;;;;;;9.00;9.00;;;;;21.63;42.32;99826.09;110444;1261;23626;-54
2022/04/25 03:30:15;;;;;;;;;9.00;9.00;;;;;21.62;42.10;99829.60;110387;1261;19616;-54
2022/04/25 03:32:42;;;;;;;;;10.00;9.00;;;;;21.62;42.09;99823.61;110444;1261;20278;-54
2022/04/25 03:35:09;;;;;;;;;9.00;9.00;;;;;21.63;42.10;99826.42;110437;1261;19757;-54
2022/04/25 03:37:37;;;;;;;;;10.00;9.00;;;;;21.63;42.14;99821.00;110466;1261;19615;-54
2022/04/25 03:40:05;;;;;;;;;9.50;9.50;;;;;21.63;42.18;99817.90;110408;1261;20219;-52
2022/04/25 03:42:33;;;;;;;;;12.00;10.00;;;;;21.63;42.26;99819.16;110452;1261;19588;-53
2022/04/25 03:45:00;;;;;;;;;9.00;8.33;;;;;21.63;42.13;99823.23;110388;1261;22027;-52
2022/04/25 03:47:28;;;;;;;;;10.00;8.33;;;;;21.62;42.15;99826.71;110468;1261;20597;-53
2022/04/25 03:49:56;;;;;;;;;8.00;8.00;;;;;21.63;42.11;99819.73;110465;1261;19100;-52
2022/04/25 03:52:24;;;;;;;;;11.00;10.00;;;;;21.62;42.11;99827.97;110514;1261;19566;-52
2022/04/25 03:57:36;;;;;;;;;9.67;9.67;;;;;21.60;42.17;99828.77;110457;1260;20908;-54
2022/04/25 04:00:03;;;;;;;;;8.33;8.33;;;;;21.60;42.18;99827.68;110389;1261;21917;-53
2022/04/25 04:02:31;;;;;;;;;9.00;8.00;;;;;21.60;42.10;99829.36;110404;1261;20302;-53
2022/04/25 04:04:58;;;;;;;;;8.67;7.33;;;;;21.60;42.04;99831.29;110456;1261;19134;-53
2022/04/25 04:07:26;;;;;;;;;9.00;8.00;;;;;21.60;42.16;99830.78;110502;1261;19440;-52
2022/04/25 04:09:53;;;;;;;;;8.67;8.67;;;;;21.60;42.13;99834.65;110448;1261;20549;-58
2022/04/25 04:12:20;;;;;;;;;13.00;9.00;;;;;21.59;42.26;99836.16;110354;1261;21098;-53
2022/04/25 04:14:47;;;;;;;;;9.00;9.00;;;;;21.59;42.20;99835.64;110467;1261;20633;-51
2022/04/25 04:17:17;;;;;;;;;9.67;9.00;;;;;21.60;42.07;99837.91;110442;1261;20350;-53
2022/04/25 04:19:46;;;;;;;;;8.00;8.00;;;;;21.58;42.20;99842.61;110430;1260;19321;-51
2022/04/25 04:22:14;;;;;;;;;9.67;8.67;;;;;21.59;42.08;99845.39;110496;1261;23127;-53
2022/04/25 04:24:42;;;;;;;;;7.33;7.33;;;;;21.60;42.32;99850.30;110449;1262;22416;-54
2022/04/25 04:27:09;;;;;;;;;9.00;8.67;;;;;21.59;42.26;99854.48;110472;1260;19277;-54
2022/04/25 04:29:36;;;;;;;;;8.00;8.00;;;;;21.59;42.10;99853.10;110480;1262;19429;-53
2022/04/25 04:32:05;;;;;;;;;8.00;8.00;;;;;21.60;42.25;99860.95;110439;1260;20360;-55
2022/04/25 04:34:32;;;;;;;;;9.67;9.67;;;;;21.60;42.29;99861.27;110467;1261;19148;-54
2022/04/25 04:37:00;;;;;;;;;9.00;9.00;;;;;21.61;42.13;99871.39;110429;1261;19437;-54
2022/04/25 04:39:27;;;;;;;;;8.67;8.00;;;;;21.61;42.19;99873.23;110435;1261;20252;-52
2022/04/25 04:41:54;;;;;;;;;9.00;8.00;;;;;21.61;42.26;99878.64;110414;1261;19095;-52
2022/04/25 04:44:21;;;;;;;;;11.50;10.00;;;;;21.62;42.21;99882.05;110429;1261;19451;-53
2022/04/25 04:46:49;;;;;;;;;12.00;9.00;;;;;21.62;42.13;99881.05;110479;1261;20444;-52
2022/04/25 04:49:16;;;;;;;;;9.00;9.00;;;;;21.63;42.10;99883.17;110429;1261;23132;-57
2022/04/25 04:51:43;;;;;;;;;12.00;9.67;;;;;21.63;42.17;99885.52;110404;1260;19514;-53
2022/04/25 04:54:10;;;;;;;;;8.00;8.00;;;;;21.63;41.97;99887.89;110441;1261;20322;-53
2022/04/25 04:56:37;;;;;;;;;9.50;9.00;;;;;21.61;42.29;99891.53;110451;1261;19249;-51
2022/04/25 04:59:05;;;;;;;;;8.00;8.00;;;;;21.61;42.14;99891.70;110424;1260;21456;-53
2022/04/25 05:01:34;;;;;;;;;6.00;6.00;;;;;21.62;42.05;99891.61;110481;1261;20447;-53
2022/04/25 05:04:01;;;;;;;;;11.00;10.00;;;;;21.61;42.17;99895.23;110488;1261;23792;-52
2022/04/25 05:06:29;;;;;;;;;9.33;9.00;;;;;21.61;42.19;99895.05;110408;1261;19720;-53
2022/04/25 05:08:56;;;;;;;;;9.00;8.67;;;;;21.61;42.16;99901.77;110405;1261;20307;-54
2022/04/25 05:11:23;;;;;;;;;8.00;8.00;;;;;21.60;42.08;99900.96;110438;1261;19736;-53
2022/04/25 05:13:51;;;;;;;;;8.50;8.00;;;;;21.59;42.01;99906.34;110445;1261;21163;-54
2022/04/25 05:16:18;;;;;;;;;9.00;9.00;;;;;21.59;42.12;99906.63;110503;1261;21663;-55
2022/04/25 05:18:46;;;;;;;;;8.00;8.00;;;;;21.59;42.25;99909.77;110452;1261;22628;-55
2022/04/25 05:21:14;;;;;;;;;12.00;10.00;;;;;21.59;42.14;99909.20;110444;1261;23062;-58
2022/04/25 05:23:41;;;;;;;;;13.00;9.00;;;;;21.59;41.98;99911.75;110348;1261;23031;-53
2022/04/25 05:26:09;;;;;;;;;9.00;8.67;;;;;21.59;42.40;99903.66;110373;1261;23079;-57
2022/04/25 05:28:36;;;;;;;;;12.00;9.00;;;;;21.59;42.18;99905.29;110508;1261;19728;-57
2022/04/25 05:31:03;;;;;;;;;12.67;9.00;;;;;21.59;42.37;99907.98;110460;1261;20433;-55
2022/04/25 05:33:31;;;;;;;;;9.33;8.00;;;;;21.59;42.42;99909.27;110392;1261;19482;-53
2022/04/25 05:35:58;;;;;;;;;10.00;10.00;;;;;21.58;42.35;99905.17;110453;1260;23651;-58
2022/04/25 05:38:25;;;;;;;;;11.33;9.67;;;;;21.58;42.28;99908.22;110387;1261;20343;-51
2022/04/25 05:40:53;;;;;;;;;10.00;9.00;;;;;21.59;42.45;99908.36;110381;1261;19349;-59
2022/04/25 05:43:20;;;;;;;;;9.00;9.00;;;;;21.64;42.32;99910.50;110462;1261;21003;-57
2022/04/25 05:45:48;;;;;;;;;9.00;9.00;;;;;21.70;42.47;99914.02;110477;1261;23768;-56
2022/04/25 05:53:45;;;;;;;;;10.00;10.00;;;;;21.85;43.31;99920.25;110426;1261;22642;-56
2022/04/25 05:56:12;;;;;;;;;11.33;11.33;;;;;21.84;43.61;99915.71;110343;1259;19382;-56
2022/04/25 05:58:39;;;;;;;;;9.67;9.67;;;;;21.87;43.98;99923.02;110436;1261;19588;-56
2022/04/25 06:01:06;;;;;;;;;10.67;10.00;;;;;21.91;44.26;99924.84;110394;1261;20290;-54
2022/04/25 06:03:34;;;;;;;;;9.00;9.00;;;;;21.99;44.51;99925.45;110356;1261;19299;-56
2022/04/25 06:06:01;;;;;;;;;9.00;9.00;;;;;22.01;44.82;99930.92;110391;1260;21517;-57
2022/04/25 06:08:28;;;;;;;;;9.00;8.67;;;;;22.01;44.79;99931.81;110407;1261;20842;-57
2022/04/25 06:10:55;;;;;;;;;12.67;10.00;;;;;21.95;44.89;99930.06;110440;1261;19249;-56
2022/04/25 06:13:23;;;;;;;;;11.00;10.67;;;;;21.90;44.56;99930.64;110391;1261;19597;-57
2022/04/25 06:15:50;;;;;;;;;10.67;10.67;;;;;21.86;44.56;99932.84;110339;1260;23421;-55
2022/04/25 06:18:18;;;;;;;;;9.33;8.33;;;;;21.80;44.82;99930.63;110224;1261;234980;-55
2022/04/25 06:20:45;;;;;;;;;11.33;10.67;;;;;21.81;44.78;99930.84;110291;1261;19503;-55
2022/04/25 06:23:12;;;;;;;;;9.67;9.67;;;;;21.84;44.88;99933.55;110350;1261;20354;-58
2022/04/25 06:25:39;;;;;;;;;10.67;9.67;;;;;21.83;44.88;99934.27;110412;1261;19293;-56
2022/04/25 06:28:07;;;;;;;;;12.00;10.33;;;;;21.81;44.76;99934.33;110416;1260;22170;-54
2022/04/25 06:30:35;;;;;;;;;13.33;9.67;;;;;21.78;44.95;99939.06;110389;1260;20806;-54
2022/04/25 06:33:02;;;;;;;;;13.33;11.00;;;;;21.73;44.90;99940.88;110385;1261;19319;-56
2022/04/25 06:35:29;;;;;;;;;10.33;9.00;;;;;21.74;44.94;99941.34;110414;1260;23051;-55
2022/04/25 06:37:56;;;;;;;;;10.50;9.00;;;;;21.74;44.65;99938.40;110469;1261;20331;-56
2022/04/25 06:40:24;;;;;;;;;10.00;10.00;;;;;21.74;44.78;99939.08;110466;1261;20909;-58
2022/04/25 06:42:53;;;;;;;;;9.00;8.33;;;;;21.73;44.79;99940.00;110398;1260;23560;-53
2022/04/25 06:45:20;;;;;;;;;10.00;9.00;;;;;21.75;44.74;99940.29;110441;1262;23151;-57
2022/04/25 06:47:48;;;;;;;;;12.33;10.33;;;;;21.78;44.83;99940.57;110446;1261;19342;-59
2022/04/25 06:50:15;;;;;;;;;10.00;10.00;;;;;21.81;44.94;99940.16;110385;1260;19577;-56
2022/04/25 06:52:42;;;;;;;;;9.33;9.00;;;;;21.83;45.05;99940.23;110470;1261;20480;-56
2022/04/25 06:55:10;;;;;;;;;11.00;10.50;;;;;21.86;44.99;99942.57;110441;1261;22312;-57
2022/04/25 06:57:38;;;;;;;;;12.00;11.33;;;;;21.85;45.11;99948.79;110450;1261;19594;-56
2022/04/25 07:00:05;;;;;;;;;10.00;10.00;;;;;21.81;45.05;99952.15;110415;1260;23719;-57
2022/04/25 07:02:32;;;;;;;;;9.00;9.00;;;;;21.78;45.36;99952.52;110410;1261;23154;-55
2022/04/25 07:04:59;;;;;;;;;10.00;9.67;;;;;21.75;45.49;99955.49;110443;1260;19430;-56
2022/04/25 07:07:27;;;;;;;;;10.67;10.67;;;;;21.73;45.23;99956.02;110422;1260;20353;-55
2022/04/25 07:09:54;;;;;;;;;10.00;10.00;;;;;21.70;45.25;99959.27;110419;1260;23030;-54
2022/04/25 07:12:21;;;;;;;;;10.00;9.00;;;;;21.68;44.23;99962.08;110332;1261;19551;-57
2022/04/25 07:14:49;;;;;;;;;12.00;11.00;;;;;21.66;44.50;99963.46;110330;1261;21108;-56
2022/04/25 07:17:16;;;;;;;;;14.00;10.50;;;;;21.64;44.50;99966.30;110414;1261;23119;-54
2022/04/25 07:19:43;;;;;;;;;12.00;11.00;;;;;21.61;44.10;99963.06;110419;1261;19567;-58
2022/04/25 07:30:26;;;;;;;;;11.33;11.33;;;;;21.55;42.98;99966.63;110347;1261;20589;-57
2022/04/25 07:32:55;;;;;;;;;11.67;9.67;;;;;21.59;43.33;99971.65;110425;1261;19469;-58
2022/04/25 07:35:22;;;;;;;;;12.67;12.67;;;;;21.64;43.83;99977.88;110372;1261;19564;-57
2022/04/25 07:37:49;;;;;;;;;14.00;13.00;;;;;21.65;43.02;99975.62;110423;1261;20549;-55
2022/04/25 07:40:17;;;;;;;;;13.67;13.33;;;;;21.55;42.41;99977.91;110415;1261;19183;-55
2022/04/25 07:42:44;;;;;;;;;12.00;9.67;;;;;21.58;42.85;99983.77;110418;1261;19587;-56
2022/04/25 07:45:11;;;;;;;;;11.33;10.00;;;;;21.59;42.81;99980.97;110381;1261;20610;-58
2022/04/25 07:47:42;;;;;;;;;12.00;10.67;;;;;21.58;43.08;99978.27;110441;1261;19316;-57
2022/04/25 07:50:10;;;;;;;;;13.00;12.33;;;;;21.56;42.89;99979.26;110435;1261;19431;-54
2022/04/25 07:52:37;;;;;;;;;12.00;12.00;;;;;21.53;42.85;99981.63;110463;1260;20896;-57
2022/04/25 07:55:04;;;;;;;;;14.00;14.00;;;;;21.44;42.75;99984.13;110434;1260;19340;-57
2022/04/25 07:57:31;;;;;;;;;15.50;15.00;;;;;21.47;44.85;99987.52;110436;1261;22258;-57
2022/04/25 07:59:58;;;;;;;;;13.67;13.00;;;;;21.46;46.39;99991.35;110459;1260;23205;-58
2022/04/25 08:02:26;;;;;;;;;18.67;17.00;;;;;21.46;45.33;99994.55;110392;1261;19270;-57
2022/04/25 08:04:53;;;;;;;;;14.00;13.67;;;;;21.44;45.11;99994.08;110402;1261;19832;-56
2022/04/25 08:07:20;;;;;;;;;17.00;16.00;;;;;21.44;45.24;99994.83;110464;1260;20474;-56
2022/04/25 08:09:48;;;;;;;;;16.00;16.00;;;;;21.43;44.96;99992.81;110419;1261;19239;-57
2022/04/25 08:17:59;;;;;;;;;14.00;13.67;;;;;21.37;44.20;100000.36;110385;1260;19263;-54
2022/04/25 08:20:28;;;;;;;;;13.67;13.00;;;;;21.29;42.49;100002.59;110430;1261;19972;-56
2022/04/25 08:22:55;;;;;;;;;13.00;12.67;;;;;21.24;42.36;100012.81;110333;1261;20406;-53
2022/04/25 08:25:22;;;;;;;;;16.00;14.00;;;;;21.19;41.80;100012.27;110473;1260;22256;-52
2022/04/25 08:27:49;;;;;;;;;14.00;14.00;;;;;21.13;41.89;100010.54;110401;1261;20389;-58
2022/04/25 08:30:17;;;;;;;;;14.00;14.00;;;;;21.14;41.45;100012.77;110385;1260;20293;-54
2022/04/25 08:32:46;;;;;;;;;16.00;14.00;;;;;21.19;41.55;100013.02;110251;1260;23244;-57
2022/04/25 08:35:13;;;;;;;;;15.00;15.00;;;;;21.21;41.59;100008.13;110450;1261;23247;-58
2022/04/25 08:37:41;;;;;;;;;19.00;15.33;;;;;21.24;41.10;100014.04;110467;1261;23057;-56
2022/04/25 08:40:08;;;;;;;;;15.00;13.50;;;;;21.25;40.81;100010.14;110406;1260;19283;-55
2022/04/25 08:42:36;;;;;;;;;14.00;13.00;;;;;21.25;41.01;100013.61;110406;1261;22411;-55
2022/04/25 08:45:05;;;;;;;;;16.33;16.00;;;;;21.27;40.95;100009.95;110428;1261;22028;-57
2022/04/25 08:47:32;;;;;;;;;17.00;14.67;;;;;21.26;40.96;100012.06;110376;1260;24266;-55
2022/04/25 08:49:59;;;;;;;;;18.33;16.00;;;;;21.27;41.05;100012.29;110439;1260;19662;-56
2022/04/25 08:52:27;;;;;;;;;18.00;16.33;;;;;21.28;41.00;100009.66;110422;1260;22811;-58
2022/04/25 08:54:54;;;;;;;;;13.00;13.00;;;;;21.27;40.65;100004.95;110410;1261;19254;-54
2022/04/25 08:57:21;;;;;;;;;16.00;14.00;;;;;21.28;40.89;100006.92;110447;1261;21343;-57
2022/04/25 08:59:48;;;;;;;;;16.67;15.33;;;;;21.29;40.68;100008.79;110433;1261;20331;-56
2022/04/25 09:02:16;;;;;;;;;14.00;13.00;;;;;21.25;39.99;100013.66;110393;1261;19322;-56
2022/04/25 09:04:46;;;;;;;;;13.67;13.00;;;;;21.20;40.20;100015.05;110486;1261;19489;-56
2022/04/25 09:07:14;;;;;;;;;16.00;14.00;;;;;21.13;40.11;100015.61;110418;1260;20310;-56
2022/04/25 09:09:41;;;;;;;;;18.00;16.67;;;;;21.01;39.92;100014.87;110336;1261;19457;-54
2022/04/25 09:12:12;;;;;;;;;17.33;16.00;;;;;20.95;40.01;100019.98;110170;1260;23163;-51
2022/04/25 09:14:40;;;;;;;;;18.00;17.33;;;;;20.92;39.81;100021.09;110369;1261;20387;-57
2022/04/25 09:17:07;;;;;;;;;16.00;16.00;;;;;20.90;39.46;100020.35;110396;1261;19324;-56
2022/04/25 09:19:34;;;;;;;;;17.00;13.33;;;;;20.83;39.34;100023.38;110354;1261;23014;-55
2022/04/25 09:22:02;;;;;;;;;16.67;14.00;;;;;20.84;39.05;100018.57;110420;1261;20351;-58
2022/04/25 09:24:29;;;;;;;;;13.50;13.50;;;;;20.86;39.17;100010.97;110404;1261;19217;-56
2022/04/25 09:26:56;;;;;;;;;14.00;13.67;;;;;20.86;38.97;100016.66;110411;1261;19537;-56
2022/04/25 09:29:23;;;;;;;;;13.67;13.67;;;;;20.82;38.69;100014.80;110374;1261;23466;-58
2022/04/25 09:31:51;;;;;;;;;18.67;18.33;;;;;20.85;38.68;100016.04;110380;1261;19274;-54
2022/04/25 09:34:59;;;;;;;;;16.00;14.00;;;;;20.90;39.29;100015.36;110377;1261;19814;-58
2022/04/25 09:37:06;;;;;;;;;16.33;15.00;;;;;20.95;39.59;100017.84;110411;1260;22732;-56
2022/04/25 09:39:33;;;;;;;;;14.00;13.00;;;;;21.01;39.81;100024.27;110421;1261;21655;-54
2022/04/25 09:42:01;;;;;;;;;17.50;14.00;;;;;21.07;39.39;100019.34;110350;1261;19789;-56
2022/04/25 09:44:28;;;;;;;;;14.00;13.00;;;;;21.05;39.18;100022.20;110401;1260;22985;-57
2022/04/25 09:46:55;;;;;;;;;13.50;13.50;;;;;21.02;39.77;100023.15;110322;1261;23148;-57
2022/04/25 09:49:23;;;;;;;;;16.33;14.00;;;;;21.05;40.94;100023.51;110297;1261;19830;-57
2022/04/25 09:51:50;;;;;;;;;15.00;13.67;;;;;21.08;41.33;100022.52;110408;1260;20248;-55
2022/04/25 09:54:17;;;;;;;;;14.00;13.00;;;;;21.07;40.48;100023.91;110397;1261;19221;-55
2022/04/25 09:56:44;;;;;;;;;16.50;14.00;;;;;21.08;40.39;100024.66;110270;1260;23359;-57
2022/04/25 09:59:12;;;;;;;;;16.00;16.00;;;;;21.09;40.34;100022.48;110412;1261;20445;-58
2022/04/25 10:01:39;;;;;;;;;17.33;16.00;;;;;21.08;40.32;100025.96;110439;1261;19296;-58
2022/04/25 10:04:06;;;;;;;;;16.67;14.33;;;;;21.08;40.25;100025.96;110398;1261;25003;-55
2022/04/25 10:06:33;;;;;;;;;13.00;13.00;;;;;21.05;39.64;100028.91;110408;1261;21996;-57
2022/04/25 10:09:01;;;;;;;;;13.00;13.00;;;;;21.01;39.43;100025.73;110402;1261;23157;-56
2022/04/25 10:11:28;;;;;;;;;16.00;15.33;;;;;20.97;39.09;100023.98;110365;1260;23106;-52
2022/04/25 10:13:55;;;;;;;;;13.67;13.00;;;;;20.88;38.78;100028.58;110410;1260;20347;-55
2022/04/25 10:16:23;;;;;;;;;18.00;16.00;;;;;20.83;38.87;100026.11;110441;1261;19122;-54
2022/04/25 10:18:51;;;;;;;;;14.00;13.00;;;;;20.84;38.43;100029.67;110454;1261;19763;-52
2022/04/25 10:21:18;;;;;;;;;13.00;13.00;;;;;20.87;38.45;100026.69;110445;1261;20372;-52
2022/04/25 10:23:45;;;;;;;;;16.00;14.00;;;;;20.87;38.56;100031.30;110266;1261;21407;-55
2022/04/25 10:26:12;;;;;;;;;14.00;13.00;;;;;20.86;38.45;100030.61;110396;1261;23311;-55
2022/04/25 10:28:40;;;;;;;;;12.67;12.67;;;;;20.90;39.01;100032.00;110387;1262;23302;-53
2022/04/25 10:31:07;;;;;;;;;10.67;10.00;;;;;20.96;39.28;100030.02;110414;1261;19284;-55
2022/04/25 10:33:35;;;;;;;;;12.33;12.33;;;;;21.04;39.54;100033.56;110437;1261;19528;-56
2022/04/25 10:36:03;;;;;;;;;12.00;12.00;;;;;21.14;39.92;100039.09;110377;1261;23068;-56
2022/04/25 10:44:11;;;;;;;;;11.33;10.00;;;;;21.24;40.83;100047.52;110361;1261;20384;-56
2022/04/25 10:46:38;;;;;;;;;12.00;11.00;;;;;21.26;41.14;100053.45;110380;1261;19318;-56
2022/04/25 10:49:06;;;;;;;;;12.50;12.00;;;;;21.30;41.48;100052.09;110393;1261;23321;-56
2022/04/25 10:51:33;;;;;;;;;12.33;10.00;;;;;21.33;41.65;100057.11;110379;1259;20301;-53
2022/04/25 10:54:00;;;;;;;;;13.00;12.33;;;;;21.33;41.86;100059.91;110443;1261;23586;-55
2022/04/25 10:56:28;;;;;;;;;10.00;10.00;;;;;21.38;42.11;100061.04;110433;1261;22476;-54
2022/04/25 10:58:55;;;;;;;;;16.33;13.33;;;;;21.36;43.11;100064.06;110470;1261;22261;-55
2022/04/25 11:01:22;;;;;;;;;12.00;10.00;;;;;21.36;42.95;100065.52;110480;1261;23219;-59
2022/04/25 11:03:49;;;;;;;;;9.33;9.00;;;;;21.34;43.63;100068.27;110450;1261;19593;-56
2022/04/25 11:06:17;;;;;;;;;13.00;11.33;;;;;21.36;43.59;100072.80;110465;1261;20226;-55
2022/04/25 11:08:45;;;;;;;;;13.33;10.67;;;;;21.39;43.94;100076.36;110442;1260;22437;-58
2022/04/25 11:11:12;;;;;;;;;10.00;10.00;;;;;21.40;44.45;100081.27;110407;1261;23385;-56
2022/04/25 11:13:40;;;;;;;;;10.00;9.67;;;;;21.41;44.67;100082.84;110348;1261;20493;-56
2022/04/25 11:16:07;;;;;;;;;10.00;10.00;;;;;21.41;45.05;100083.02;110369;1261;19312;-55
2022/04/25 11:18:34;;;;;;;;;10.00;10.00;;;;;21.43;45.83;100084.58;110394;1261;19998;-56
2022/04/25 11:21:04;;;;;;;;;11.33;11.33;;;;;21.43;46.19;100084.91;110398;1261;20316;-55
2022/04/25 11:23:32;;;;;;;;;10.67;10.00;;;;;21.42;46.40;100087.30;110367;1260;19277;-55
2022/04/25 11:26:00;;;;;;;;;12.33;12.00;;;;;21.41;46.64;100087.77;110444;1260;20987;-53
2022/04/25 11:28:27;;;;;;;;;12.00;12.00;;;;;21.41;46.85;100086.89;110444;1261;20310;-54
2022/04/25 11:30:54;;;;;;;;;12.50;12.00;;;;;21.42;47.28;100094.56;110428;1261;19119;-54
2022/04/25 11:33:21;;;;;;;;;12.00;10.00;;;;;21.42;47.40;100096.44;110396;1260;19722;-58
2022/04/25 11:35:49;;;;;;;;;12.33;12.00;;;;;21.43;47.21;100095.82;110404;1261;20420;-58
2022/04/25 11:39:50;;;;;;;;;10.00;9.67;;;;;21.42;47.31;100095.95;110397;1260;23241;-56
2022/04/25 11:41:03;;;;;;;;;13.00;12.00;;;;;21.46;47.09;100097.27;110386;1261;20346;-52
2022/04/25 11:43:30;;;;;;;;;10.00;10.00;;;;;21.50;47.09;100100.56;110447;1261;20452;-57
2022/04/25 11:45:58;;;;;;;;;9.00;9.00;;;;;21.51;47.26;100102.02;110433;1260;19019;-55
2022/04/25 11:48:25;;;;;;;;;12.00;12.00;;;;;21.55;47.68;100108.00;110420;1261;23444;-55